sensor_id;sensor_type;location;lat;lon;timestamp;pressure;altitude;pressure_sealevel;temperature;humidity
46768;BME280;69007;48.978;18.066;2023-06-04T00:01:00;97830.56;;;13.51;65.91
46768;BME280;69007;48.978;18.066;2023-06-04T00:03:26;97827.31;;;13.44;66.14
46768;BME280;69007;48.978;18.066;2023-06-04T00:05:51;97820.81;;;13.35;66.44
46768;BME280;69007;48.978;18.066;2023-06-04T00:08:16;97829.81;;;13.25;67.36
46768;BME280;69007;48.978;18.066;2023-06-04T00:10:42;97823.81;;;13.23;66.83
46768;BME280;69007;48.978;18.066;2023-06-04T00:13:07;97825.16;;;13.31;67.56
46768;BME280;69007;48.978;18.066;2023-06-04T00:15:32;97808.53;;;13.22;67.84
46768;BME280;69007;48.978;18.066;2023-06-04T00:17:58;97832.81;;;13.28;67.92
46768;BME280;69007;48.978;18.066;2023-06-04T00:20:23;97823.56;;;13.14;67.92
46768;BME280;69007;48.978;18.066;2023-06-04T00:22:49;97803.38;;;13.10;67.75
46768;BME280;69007;48.978;18.066;2023-06-04T00:25:14;97820.00;;;13.19;67.95
46768;BME280;69007;48.978;18.066;2023-06-04T00:27:39;97816.47;;;13.18;68.26
46768;BME280;69007;48.978;18.066;2023-06-04T00:30:05;97798.19;;;13.08;68.67
46768;BME280;69007;48.978;18.066;2023-06-04T00:32:31;97812.88;;;13.18;68.56
46768;BME280;69007;48.978;18.066;2023-06-04T00:34:56;97797.13;;;12.94;69.24
46768;BME280;69007;48.978;18.066;2023-06-04T00:37:25;97790.81;;;12.88;69.53
46768;BME280;69007;48.978;18.066;2023-06-04T00:39:51;97790.56;;;12.90;69.50
46768;BME280;69007;48.978;18.066;2023-06-04T00:42:17;97800.41;;;12.91;69.75
46768;BME280;69007;48.978;18.066;2023-06-04T00:44:42;97812.94;;;13.02;69.48
46768;BME280;69007;48.978;18.066;2023-06-04T00:47:14;97797.94;;;12.89;69.58
46768;BME280;69007;48.978;18.066;2023-06-04T00:49:40;97782.66;;;12.78;69.74
46768;BME280;69007;48.978;18.066;2023-06-04T00:52:08;97800.41;;;12.91;69.61
46768;BME280;69007;48.978;18.066;2023-06-04T00:54:34;97791.41;;;12.90;69.39
46768;BME280;69007;48.978;18.066;2023-06-04T00:57:00;97803.94;;;12.91;69.20
46768;BME280;69007;48.978;18.066;2023-06-04T00:59:26;97816.78;;;12.91;69.55
46768;BME280;69007;48.978;18.066;2023-06-04T01:02:22;97803.69;;;12.78;72.67
46768;BME280;69007;48.978;18.066;2023-06-04T01:07:35;97811.34;;;12.76;70.01
46768;BME280;69007;48.978;18.066;2023-06-04T01:10:01;97790.34;;;12.71;70.03
46768;BME280;69007;48.978;18.066;2023-06-04T01:12:27;97806.94;;;12.85;69.66
46768;BME280;69007;48.978;18.066;2023-06-04T01:14:52;97803.97;;;12.81;69.45
46768;BME280;69007;48.978;18.066;2023-06-04T01:21:01;97817.88;;;12.85;71.54
46768;BME280;69007;48.978;18.066;2023-06-04T01:26:26;97812.13;;;12.86;70.10
46768;BME280;69007;48.978;18.066;2023-06-04T01:28:53;97808.88;;;12.79;69.92
46768;BME280;69007;48.978;18.066;2023-06-04T01:31:20;97793.88;;;12.66;70.34
46768;BME280;69007;48.978;18.066;2023-06-04T01:33:53;97808.91;;;12.69;71.58
46768;BME280;69007;48.978;18.066;2023-06-04T01:36:19;97801.00;;;12.62;70.87
46768;BME280;69007;48.978;18.066;2023-06-04T01:38:45;97807.28;;;12.58;71.00
46768;BME280;69007;48.978;18.066;2023-06-04T01:41:11;97807.00;;;12.54;71.99
46768;BME280;69007;48.978;18.066;2023-06-04T01:43:36;97804.00;;;12.45;72.45
46768;BME280;69007;48.978;18.066;2023-06-04T01:46:02;97787.09;;;12.33;72.66
46768;BME280;69007;48.978;18.066;2023-06-04T01:48:28;97801.28;;;12.35;72.63
46768;BME280;69007;48.978;18.066;2023-06-04T01:50:54;97813.56;;;12.32;72.99
46768;BME280;69007;48.978;18.066;2023-06-04T01:53:20;97803.19;;;12.29;73.50
46768;BME280;69007;48.978;18.066;2023-06-04T01:55:45;97812.72;;;12.27;73.81
46768;BME280;69007;48.978;18.066;2023-06-04T01:58:11;97796.63;;;12.25;73.94
46768;BME280;69007;48.978;18.066;2023-06-04T02:00:37;97801.00;;;12.26;73.33
46768;BME280;69007;48.978;18.066;2023-06-04T02:03:03;97808.06;;;12.27;73.81
46768;BME280;69007;48.978;18.066;2023-06-04T02:05:28;97807.25;;;12.27;73.68
46768;BME280;69007;48.978;18.066;2023-06-04T02:07:53;97794.44;;;12.22;73.75
46768;BME280;69007;48.978;18.066;2023-06-04T02:10:20;97808.38;;;12.36;73.69
46768;BME280;69007;48.978;18.066;2023-06-04T02:12:56;97822.81;;;12.37;74.93
46768;BME280;69007;48.978;18.066;2023-06-04T02:15:22;97811.91;;;12.37;73.46
46768;BME280;69007;48.978;18.066;2023-06-04T02:17:48;97818.19;;;12.27;73.64
46768;BME280;69007;48.978;18.066;2023-06-04T02:20:15;97804.28;;;12.23;73.75
46768;BME280;69007;48.978;18.066;2023-06-04T02:22:41;97817.91;;;12.23;74.42
46768;BME280;69007;48.978;18.066;2023-06-04T02:25:07;97817.09;;;12.23;74.31
46768;BME280;69007;48.978;18.066;2023-06-04T02:27:34;97799.88;;;12.12;74.47
46768;BME280;69007;48.978;18.066;2023-06-04T02:30:00;97808.34;;;12.21;74.67
46768;BME280;69007;48.978;18.066;2023-06-04T02:32:25;97817.34;;;12.11;74.96
46768;BME280;69007;48.978;18.066;2023-06-04T02:34:51;97806.41;;;12.06;75.13
46768;BME280;69007;48.978;18.066;2023-06-04T02:37:16;97805.88;;;12.09;75.17
46768;BME280;69007;48.978;18.066;2023-06-04T02:39:41;97811.34;;;12.14;74.51
46768;BME280;69007;48.978;18.066;2023-06-04T02:42:07;97822.56;;;12.23;74.91
46768;BME280;69007;48.978;18.066;2023-06-04T02:44:32;97830.16;;;12.21;75.15
46768;BME280;69007;48.978;18.066;2023-06-04T02:46:58;97809.72;;;12.13;74.98
46768;BME280;69007;48.978;18.066;2023-06-04T02:49:23;97818.44;;;12.20;75.14
46768;BME280;69007;48.978;18.066;2023-06-04T02:51:48;97801.53;;;12.08;75.23
46768;BME280;69007;48.978;18.066;2023-06-04T02:54:15;97815.19;;;12.18;75.65
46768;BME280;69007;48.978;18.066;2023-06-04T02:56:40;97821.16;;;12.10;75.89
46768;BME280;69007;48.978;18.066;2023-06-04T02:59:05;97815.97;;;11.98;76.95
46768;BME280;69007;48.978;18.066;2023-06-04T03:01:34;97818.97;;;12.07;76.81
46768;BME280;69007;48.978;18.066;2023-06-04T03:04:00;97808.06;;;12.12;76.45
46768;BME280;69007;48.978;18.066;2023-06-04T03:06:29;97822.81;;;12.21;76.17
46768;BME280;69007;48.978;18.066;2023-06-04T03:08:54;97828.56;;;12.35;76.59
46768;BME280;69007;48.978;18.066;2023-06-04T03:11:21;97816.84;;;12.34;76.34
46768;BME280;69007;48.978;18.066;2023-06-04T03:13:46;97819.81;;;12.48;75.21
46768;BME280;69007;48.978;18.066;2023-06-04T03:16:12;97838.13;;;12.79;74.82
46768;BME280;69007;48.978;18.066;2023-06-04T03:18:38;97818.94;;;12.99;74.65
46768;BME280;69007;48.978;18.066;2023-06-04T03:21:04;97819.16;;;13.23;73.95
46768;BME280;69007;48.978;18.066;2023-06-04T03:23:30;97835.16;;;13.61;72.94
46768;BME280;69007;48.978;18.066;2023-06-04T03:25:56;97832.34;;;13.81;72.60
46768;BME280;69007;48.978;18.066;2023-06-04T03:28:22;97831.22;;;13.88;71.73
46768;BME280;69007;48.978;18.066;2023-06-04T03:30:47;97841.66;;;13.80;74.69
46768;BME280;69007;48.978;18.066;2023-06-04T03:33:12;97826.66;;;13.68;77.25
46768;BME280;69007;48.978;18.066;2023-06-04T03:35:40;97828.09;;;13.55;74.01
46768;BME280;69007;48.978;18.066;2023-06-04T03:38:05;97840.47;;;13.37;74.86
46768;BME280;69007;48.978;18.066;2023-06-04T03:40:31;97838.81;;;13.36;76.92
46768;BME280;69007;48.978;18.066;2023-06-04T03:42:56;97852.22;;;13.32;77.66
46768;BME280;69007;48.978;18.066;2023-06-04T03:45:22;97846.19;;;13.30;76.40
46768;BME280;69007;48.978;18.066;2023-06-04T03:47:47;97836.16;;;13.10;77.19
46768;BME280;69007;48.978;18.066;2023-06-04T03:50:12;97841.09;;;12.93;76.69
46768;BME280;69007;48.978;18.066;2023-06-04T03:52:38;97857.22;;;12.89;76.53
46768;BME280;69007;48.978;18.066;2023-06-04T03:55:03;97856.66;;;12.97;78.42
46768;BME280;69007;48.978;18.066;2023-06-04T03:57:29;97858.00;;;12.95;78.90
46768;BME280;69007;48.978;18.066;2023-06-04T03:59:54;97863.75;;;12.98;77.86
46768;BME280;69007;48.978;18.066;2023-06-04T04:02:20;97850.91;;;12.99;79.16
46768;BME280;69007;48.978;18.066;2023-06-04T04:04:46;97866.72;;;13.22;79.16
46768;BME280;69007;48.978;18.066;2023-06-04T04:07:11;97868.09;;;13.09;79.49
46768;BME280;69007;48.978;18.066;2023-06-04T04:09:37;97867.84;;;13.01;79.70
46768;BME280;69007;48.978;18.066;2023-06-04T04:12:03;97870.03;;;13.04;81.60
46768;BME280;69007;48.978;18.066;2023-06-04T04:14:29;97867.56;;;13.02;80.49
46768;BME280;69007;48.978;18.066;2023-06-04T04:16:54;97860.19;;;13.03;81.24
46768;BME280;69007;48.978;18.066;2023-06-04T04:19:20;97864.00;;;12.97;80.00
46768;BME280;69007;48.978;18.066;2023-06-04T04:21:46;97841.06;;;12.98;78.38
46768;BME280;69007;48.978;18.066;2023-06-04T04:24:22;97865.38;;;13.04;79.65
46768;BME280;69007;48.978;18.066;2023-06-04T04:26:48;97865.06;;;13.26;77.60
46768;BME280;69007;48.978;18.066;2023-06-04T04:29:17;97843.47;;;13.30;76.35
46768;BME280;69007;48.978;18.066;2023-06-04T04:31:48;97864.50;;;13.45;76.26
46768;BME280;69007;48.978;18.066;2023-06-04T04:34:14;97864.13;;;13.67;76.23
46768;BME280;69007;48.978;18.066;2023-06-04T04:36:40;97861.94;;;13.74;75.96
46768;BME280;69007;48.978;18.066;2023-06-04T04:39:05;97871.44;;;13.87;75.68
46768;BME280;69007;48.978;18.066;2023-06-04T04:41:31;97862.53;;;14.16;78.00
46768;BME280;69007;48.978;18.066;2023-06-04T04:44:05;97863.66;;;14.89;76.60
46768;BME280;69007;48.978;18.066;2023-06-04T04:46:31;97864.56;;;15.08;73.37
46768;BME280;69007;48.978;18.066;2023-06-04T04:48:57;97853.44;;;15.00;71.61
46768;BME280;69007;48.978;18.066;2023-06-04T04:51:22;97856.88;;;14.81;73.59
46768;BME280;69007;48.978;18.066;2023-06-04T04:53:48;97866.53;;;14.73;75.74
46768;BME280;69007;48.978;18.066;2023-06-04T04:56:13;97859.75;;;14.66;75.68
46768;BME280;69007;48.978;18.066;2023-06-04T04:58:39;97867.19;;;14.89;75.27
46768;BME280;69007;48.978;18.066;2023-06-04T05:01:04;97870.06;;;15.08;73.80
46768;BME280;69007;48.978;18.066;2023-06-04T05:03:30;97845.84;;;14.91;74.67
46768;BME280;69007;48.978;18.066;2023-06-04T05:05:55;97870.19;;;15.22;74.27
46768;BME280;69007;48.978;18.066;2023-06-04T05:08:20;97861.16;;;15.22;74.78
46768;BME280;69007;48.978;18.066;2023-06-04T05:10:46;97849.13;;;15.42;73.88
46768;BME280;69007;48.978;18.066;2023-06-04T05:13:11;97864.38;;;17.38;67.69
46768;BME280;69007;48.978;18.066;2023-06-04T05:15:36;97853.34;;;17.38;67.23
46768;BME280;69007;48.978;18.066;2023-06-04T05:18:02;97868.25;;;17.79;66.08
46768;BME280;69007;48.978;18.066;2023-06-04T05:20:29;97864.72;;;18.29;65.18
46768;BME280;69007;48.978;18.066;2023-06-04T05:22:55;97868.34;;;18.01;65.80
46768;BME280;69007;48.978;18.066;2023-06-04T05:25:20;97850.53;;;20.85;57.90
46768;BME280;69007;48.978;18.066;2023-06-04T05:27:46;97842.13;;;21.28;55.62
46768;BME280;69007;48.978;18.066;2023-06-04T05:30:14;97858.75;;;21.28;55.62
46768;BME280;69007;48.978;18.066;2023-06-04T05:32:40;97856.50;;;23.50;50.33
46768;BME280;69007;48.978;18.066;2023-06-04T05:35:06;97860.22;;;26.21;43.32
46768;BME280;69007;48.978;18.066;2023-06-04T05:37:33;97870.41;;;27.46;39.33
46768;BME280;69007;48.978;18.066;2023-06-04T05:39:59;97859.31;;;28.83;37.75
46768;BME280;69007;48.978;18.066;2023-06-04T05:42:25;97870.47;;;29.96;35.71
46768;BME280;69007;48.978;18.066;2023-06-04T05:44:51;97863.66;;;31.58;33.92
46768;BME280;69007;48.978;18.066;2023-06-04T05:47:17;97885.72;;;32.61;32.16
46768;BME280;69007;48.978;18.066;2023-06-04T05:49:43;97877.06;;;33.11;31.02
46768;BME280;69007;48.978;18.066;2023-06-04T05:52:09;97874.56;;;33.35;29.35
46768;BME280;69007;48.978;18.066;2023-06-04T05:54:34;97883.78;;;33.98;28.60
46768;BME280;69007;48.978;18.066;2023-06-04T05:57:02;97880.03;;;34.58;28.14
46768;BME280;69007;48.978;18.066;2023-06-04T05:59:28;97889.03;;;35.18;27.46
46768;BME280;69007;48.978;18.066;2023-06-04T06:01:53;97891.59;;;35.94;26.85
46768;BME280;69007;48.978;18.066;2023-06-04T06:04:18;97893.16;;;35.95;25.96
46768;BME280;69007;48.978;18.066;2023-06-04T06:06:44;97904.88;;;36.21;25.50
46768;BME280;69007;48.978;18.066;2023-06-04T06:09:13;97897.13;;;36.25;25.24
46768;BME280;69007;48.978;18.066;2023-06-04T06:11:40;97891.69;;;34.60;26.24
46768;BME280;69007;48.978;18.066;2023-06-04T06:14:05;97905.50;;;34.54;26.63
46768;BME280;69007;48.978;18.066;2023-06-04T06:16:30;97906.25;;;34.58;25.82
46768;BME280;69007;48.978;18.066;2023-06-04T06:18:57;97911.00;;;33.78;26.86
46768;BME280;69007;48.978;18.066;2023-06-04T06:21:22;97901.88;;;32.28;28.28
46768;BME280;69007;48.978;18.066;2023-06-04T06:23:48;97896.41;;;30.97;29.75
46768;BME280;69007;48.978;18.066;2023-06-04T06:26:13;97891.25;;;29.47;31.19
46768;BME280;69007;48.978;18.066;2023-06-04T06:28:39;97892.38;;;28.17;32.56
46768;BME280;69007;48.978;18.066;2023-06-04T06:31:04;97884.78;;;26.86;32.81
46768;BME280;69007;48.978;18.066;2023-06-04T06:33:30;97894.44;;;26.02;34.93
46768;BME280;69007;48.978;18.066;2023-06-04T06:35:56;97895.13;;;25.35;35.37
46768;BME280;69007;48.978;18.066;2023-06-04T06:38:25;97880.69;;;24.60;37.28
46768;BME280;69007;48.978;18.066;2023-06-04T06:40:51;97887.44;;;24.22;37.51
46768;BME280;69007;48.978;18.066;2023-06-04T06:43:16;97886.63;;;24.22;38.76
46768;BME280;69007;48.978;18.066;2023-06-04T06:45:41;97891.41;;;23.84;39.60
46768;BME280;69007;48.978;18.066;2023-06-04T06:48:07;97885.41;;;23.49;40.01
46768;BME280;69007;48.978;18.066;2023-06-04T06:50:32;97892.72;;;23.08;41.33
46768;BME280;69007;48.978;18.066;2023-06-04T06:53:00;97897.31;;;22.61;41.85
46768;BME280;69007;48.978;18.066;2023-06-04T06:55:26;97878.06;;;22.44;42.34
46768;BME280;69007;48.978;18.066;2023-06-04T06:57:51;97888.88;;;22.79;42.05
46768;BME280;69007;48.978;18.066;2023-06-04T07:00:17;97909.09;;;22.37;43.75
46768;BME280;69007;48.978;18.066;2023-06-04T07:02:42;97897.66;;;22.09;44.01
46768;BME280;69007;48.978;18.066;2023-06-04T07:05:08;97900.25;;;22.14;44.08
46768;BME280;69007;48.978;18.066;2023-06-04T07:07:33;97891.88;;;22.23;45.57
46768;BME280;69007;48.978;18.066;2023-06-04T07:09:59;97901.31;;;22.22;45.14
46768;BME280;69007;48.978;18.066;2023-06-04T07:12:25;97904.25;;;21.96;44.47
46768;BME280;69007;48.978;18.066;2023-06-04T07:14:50;97894.88;;;22.09;44.52
46768;BME280;69007;48.978;18.066;2023-06-04T07:17:15;97893.16;;;22.25;45.04
46768;BME280;69007;48.978;18.066;2023-06-04T07:19:41;97911.53;;;22.60;45.29
46768;BME280;69007;48.978;18.066;2023-06-04T07:22:06;97916.88;;;22.14;47.01
46768;BME280;69007;48.978;18.066;2023-06-04T07:24:31;97914.56;;;21.86;45.77
46768;BME280;69007;48.978;18.066;2023-06-04T07:26:57;97913.59;;;21.82;44.69
46768;BME280;69007;48.978;18.066;2023-06-04T07:29:22;97893.97;;;21.66;45.07
46768;BME280;69007;48.978;18.066;2023-06-04T07:31:48;97899.00;;;21.64;45.03
46768;BME280;69007;48.978;18.066;2023-06-04T07:34:13;97887.16;;;21.46;44.41
46768;BME280;69007;48.978;18.066;2023-06-04T07:36:39;97874.50;;;21.37;45.03
46768;BME280;69007;48.978;18.066;2023-06-04T07:39:04;97891.34;;;22.00;45.68
46768;BME280;69007;48.978;18.066;2023-06-04T07:41:30;97889.34;;;22.39;43.29
46768;BME280;69007;48.978;18.066;2023-06-04T07:43:55;97883.53;;;22.32;43.22
46768;BME280;69007;48.978;18.066;2023-06-04T07:46:21;97890.28;;;22.43;44.09
46768;BME280;69007;48.978;18.066;2023-06-04T07:48:46;97899.84;;;22.54;43.63
46768;BME280;69007;48.978;18.066;2023-06-04T07:51:12;97908.56;;;22.65;45.09
46768;BME280;69007;48.978;18.066;2023-06-04T07:53:38;97902.28;;;22.56;44.89
46768;BME280;69007;48.978;18.066;2023-06-04T07:56:04;97912.09;;;22.74;43.58
46768;BME280;69007;48.978;18.066;2023-06-04T07:58:29;97907.84;;;22.77;43.16
46768;BME280;69007;48.978;18.066;2023-06-04T08:00:55;97902.06;;;22.61;44.53
46768;BME280;69007;48.978;18.066;2023-06-04T08:03:21;97917.50;;;22.71;44.05
46768;BME280;69007;48.978;18.066;2023-06-04T08:05:46;97918.22;;;22.80;44.14
46768;BME280;69007;48.978;18.066;2023-06-04T08:08:12;97908.28;;;22.79;44.70
46768;BME280;69007;48.978;18.066;2023-06-04T08:10:39;97925.72;;;23.00;43.49
46768;BME280;69007;48.978;18.066;2023-06-04T08:13:04;97927.09;;;22.94;40.89
46768;BME280;69007;48.978;18.066;2023-06-04T08:15:30;97923.72;;;22.68;41.65
46768;BME280;69007;48.978;18.066;2023-06-04T08:17:56;97928.44;;;23.09;40.72
46768;BME280;69007;48.978;18.066;2023-06-04T08:20:21;97934.44;;;23.32;41.79
46768;BME280;69007;48.978;18.066;2023-06-04T08:22:47;97919.47;;;23.58;41.43
46768;BME280;69007;48.978;18.066;2023-06-04T08:25:13;97924.56;;;23.68;40.25
46768;BME280;69007;48.978;18.066;2023-06-04T08:27:39;97916.41;;;23.39;40.71
46768;BME280;69007;48.978;18.066;2023-06-04T08:30:05;97931.88;;;23.27;40.27
46768;BME280;69007;48.978;18.066;2023-06-04T08:32:31;97926.78;;;23.29;40.20
46768;BME280;69007;48.978;18.066;2023-06-04T08:34:56;97923.16;;;23.62;40.18
46768;BME280;69007;48.978;18.066;2023-06-04T08:37:21;97923.34;;;24.03;38.62
46768;BME280;69007;48.978;18.066;2023-06-04T08:39:49;97921.22;;;23.75;39.76
46768;BME280;69007;48.978;18.066;2023-06-04T08:42:40;97914.81;;;23.50;37.65
46768;BME280;69007;48.978;18.066;2023-06-04T08:45:09;97928.28;;;23.27;40.19
46768;BME280;69007;48.978;18.066;2023-06-04T08:47:37;97926.47;;;23.10;39.52
46768;BME280;69007;48.978;18.066;2023-06-04T08:50:03;97913.94;;;23.25;40.54
46768;BME280;69007;48.978;18.066;2023-06-04T08:52:31;97933.00;;;23.26;37.78
46768;BME280;69007;48.978;18.066;2023-06-04T08:54:57;97926.19;;;23.24;38.78
46768;BME280;69007;48.978;18.066;2023-06-04T08:57:23;97933.03;;;23.72;38.35
46768;BME280;69007;48.978;18.066;2023-06-04T08:59:49;97926.88;;;23.66;37.91
46768;BME280;69007;48.978;18.066;2023-06-04T09:02:15;97919.19;;;23.51;38.26
46768;BME280;69007;48.978;18.066;2023-06-04T09:04:43;97917.72;;;23.53;39.06
46768;BME280;69007;48.978;18.066;2023-06-04T09:07:10;97926.16;;;23.57;41.11
46768;BME280;69007;48.978;18.066;2023-06-04T09:09:40;97921.41;;;23.58;40.78
46768;BME280;69007;48.978;18.066;2023-06-04T09:12:13;97937.59;;;23.43;42.30
46768;BME280;69007;48.978;18.066;2023-06-04T09:14:41;97937.59;;;23.43;40.78
46768;BME280;69007;48.978;18.066;2023-06-04T09:17:06;97947.47;;;23.53;41.08
46768;BME280;69007;48.978;18.066;2023-06-04T09:19:32;97940.19;;;23.27;41.61
46768;BME280;69007;48.978;18.066;2023-06-04T09:21:59;97947.19;;;23.46;41.13
46768;BME280;69007;48.978;18.066;2023-06-04T09:24:40;97954.91;;;23.73;41.34
46768;BME280;69007;48.978;18.066;2023-06-04T09:27:16;97943.50;;;24.00;41.27
46768;BME280;69007;48.978;18.066;2023-06-04T09:29:49;97952.06;;;24.07;40.60
46768;BME280;69007;48.978;18.066;2023-06-04T09:32:24;97950.78;;;24.41;41.00
46768;BME280;69007;48.978;18.066;2023-06-04T09:34:50;97947.56;;;24.27;40.46
46768;BME280;69007;48.978;18.066;2023-06-04T09:37:16;97937.22;;;23.90;39.51
46768;BME280;69007;48.978;18.066;2023-06-04T09:39:53;97935.31;;;23.58;42.42
46768;BME280;69007;48.978;18.066;2023-06-04T09:42:19;97936.41;;;23.78;40.01
46768;BME280;69007;48.978;18.066;2023-06-04T09:44:45;97934.03;;;23.55;40.38
46768;BME280;69007;48.978;18.066;2023-06-04T09:47:13;97950.03;;;23.58;40.90
46768;BME280;69007;48.978;18.066;2023-06-04T09:49:46;97955.94;;;23.23;43.68
46768;BME280;69007;48.978;18.066;2023-06-04T09:52:12;97950.66;;;23.43;42.80
46768;BME280;69007;48.978;18.066;2023-06-04T09:54:39;97956.53;;;23.74;41.98
46768;BME280;69007;48.978;18.066;2023-06-04T09:57:16;97958.25;;;23.67;41.40
46768;BME280;69007;48.978;18.066;2023-06-04T09:59:44;97945.03;;;23.51;40.33
46768;BME280;69007;48.978;18.066;2023-06-04T10:02:12;97946.06;;;23.47;42.25
46768;BME280;69007;48.978;18.066;2023-06-04T10:04:41;97943.09;;;23.64;42.36
46768;BME280;69007;48.978;18.066;2023-06-04T10:07:09;97944.69;;;23.19;41.54
46768;BME280;69007;48.978;18.066;2023-06-04T10:09:39;97958.22;;;23.00;42.35
46768;BME280;69007;48.978;18.066;2023-06-04T10:12:13;97950.38;;;22.81;42.20
46768;BME280;69007;48.978;18.066;2023-06-04T10:15:07;97958.81;;;22.85;42.54
46768;BME280;69007;48.978;18.066;2023-06-04T10:17:35;97945.50;;;22.78;42.33
46768;BME280;69007;48.978;18.066;2023-06-04T10:20:01;97941.50;;;22.67;41.97
46768;BME280;69007;48.978;18.066;2023-06-04T10:22:29;97967.16;;;22.85;41.56
46768;BME280;69007;48.978;18.066;2023-06-04T10:24:55;97941.56;;;22.58;41.02
46768;BME280;69007;48.978;18.066;2023-06-04T10:27:22;97948.97;;;22.54;42.20
46768;BME280;69007;48.978;18.066;2023-06-04T10:29:49;97959.13;;;22.11;44.11
46768;BME280;69007;48.978;18.066;2023-06-04T10:32:15;97963.50;;;21.74;43.94
46768;BME280;69007;48.978;18.066;2023-06-04T10:34:41;97959.09;;;21.81;42.58
46768;BME280;69007;48.978;18.066;2023-06-04T10:37:18;97966.88;;;21.79;44.15
46768;BME280;69007;48.978;18.066;2023-06-04T10:39:51;97964.38;;;21.57;43.21
46768;BME280;69007;48.978;18.066;2023-06-04T10:42:17;97940.59;;;21.56;43.62
46768;BME280;69007;48.978;18.066;2023-06-04T10:44:48;97962.69;;;21.73;44.41
46768;BME280;69007;48.978;18.066;2023-06-04T10:47:20;97950.06;;;21.84;43.14
46768;BME280;69007;48.978;18.066;2023-06-04T10:49:47;97950.59;;;21.78;43.77
46768;BME280;69007;48.978;18.066;2023-06-04T10:52:12;97951.50;;;21.43;44.79
46768;BME280;69007;48.978;18.066;2023-06-04T10:54:38;97952.78;;;21.63;45.33
46768;BME280;69007;48.978;18.066;2023-06-04T10:57:13;97948.44;;;21.92;47.30
46768;BME280;69007;48.978;18.066;2023-06-04T10:59:39;97953.78;;;22.36;46.21
46768;BME280;69007;48.978;18.066;2023-06-04T11:02:06;97936.94;;;22.11;45.44
46768;BME280;69007;48.978;18.066;2023-06-04T11:04:32;97948.03;;;22.11;44.93
46768;BME280;69007;48.978;18.066;2023-06-04T11:07:01;97953.03;;;22.18;44.98
46768;BME280;69007;48.978;18.066;2023-06-04T11:09:30;97948.13;;;22.23;46.31
46768;BME280;69007;48.978;18.066;2023-06-04T11:11:59;97938.00;;;21.98;44.97
46768;BME280;69007;48.978;18.066;2023-06-04T11:14:25;97960.16;;;21.98;45.44
46768;BME280;69007;48.978;18.066;2023-06-04T11:16:51;97962.22;;;22.09;45.38
46768;BME280;69007;48.978;18.066;2023-06-04T11:19:16;97972.31;;;21.67;45.97
46768;BME280;69007;48.978;18.066;2023-06-04T11:21:43;97973.09;;;21.76;44.71
46768;BME280;69007;48.978;18.066;2023-06-04T11:24:08;97960.13;;;21.50;44.95
46768;BME280;69007;48.978;18.066;2023-06-04T11:26:35;97958.19;;;21.60;43.07
46768;BME280;69007;48.978;18.066;2023-06-04T11:29:06;97955.41;;;21.98;44.63
46768;BME280;69007;48.978;18.066;2023-06-04T11:31:42;97969.16;;;22.24;43.11
46768;BME280;69007;48.978;18.066;2023-06-04T11:34:08;97974.56;;;22.12;43.72
46768;BME280;69007;48.978;18.066;2023-06-04T11:36:34;97975.09;;;22.05;43.74
46768;BME280;69007;48.978;18.066;2023-06-04T11:39:03;97969.03;;;22.12;44.05
46768;BME280;69007;48.978;18.066;2023-06-04T11:41:31;97955.06;;;22.38;44.12
46768;BME280;69007;48.978;18.066;2023-06-04T11:43:57;97981.78;;;22.73;42.83
46768;BME280;69007;48.978;18.066;2023-06-04T11:46:23;97974.66;;;22.63;42.74
46768;BME280;69007;48.978;18.066;2023-06-04T11:48:52;97970.59;;;22.81;45.22
46768;BME280;69007;48.978;18.066;2023-06-04T11:51:19;97975.38;;;22.51;44.47
46768;BME280;69007;48.978;18.066;2023-06-04T11:53:46;97974.34;;;22.35;43.25
46768;BME280;69007;48.978;18.066;2023-06-04T11:56:11;97982.72;;;22.47;44.03
46768;BME280;69007;48.978;18.066;2023-06-04T11:58:37;97984.13;;;22.62;43.37
46768;BME280;69007;48.978;18.066;2023-06-04T12:01:04;97961.94;;;22.62;42.77
46768;BME280;69007;48.978;18.066;2023-06-04T12:03:40;97975.66;;;22.58;43.07
46768;BME280;69007;48.978;18.066;2023-06-04T12:06:13;97978.22;;;22.42;42.54
46768;BME280;69007;48.978;18.066;2023-06-04T12:08:54;97970.91;;;22.38;43.62
46768;BME280;69007;48.978;18.066;2023-06-04T12:11:31;97965.94;;;22.52;42.60
46768;BME280;69007;48.978;18.066;2023-06-04T12:14:04;97977.34;;;22.72;44.11
46768;BME280;69007;48.978;18.066;2023-06-04T12:16:30;97987.50;;;22.68;42.54
46768;BME280;69007;48.978;18.066;2023-06-04T12:19:09;97974.88;;;22.19;44.34
46768;BME280;69007;48.978;18.066;2023-06-04T12:21:35;97986.50;;;22.13;45.25
46768;BME280;69007;48.978;18.066;2023-06-04T12:26:33;98000.31;;;21.83;45.60
46768;BME280;69007;48.978;18.066;2023-06-04T12:29:07;98000.63;;;21.72;47.80
46768;BME280;69007;48.978;18.066;2023-06-04T12:31:35;97994.13;;;21.68;47.05
46768;BME280;69007;48.978;18.066;2023-06-04T12:34:01;97999.72;;;21.60;46.29
46768;BME280;69007;48.978;18.066;2023-06-04T12:36:27;97998.38;;;21.66;48.15
46768;BME280;69007;48.978;18.066;2023-06-04T12:38:59;97997.41;;;21.62;47.78
46768;BME280;69007;48.978;18.066;2023-06-04T12:41:26;97980.16;;;21.39;48.12
46768;BME280;69007;48.978;18.066;2023-06-04T12:43:51;97985.38;;;21.31;48.19
46768;BME280;69007;48.978;18.066;2023-06-04T12:46:17;97973.81;;;21.29;49.14
46768;BME280;69007;48.978;18.066;2023-06-04T12:48:42;97998.56;;;21.34;49.38
46768;BME280;69007;48.978;18.066;2023-06-04T12:51:09;97986.50;;;21.22;50.39
46768;BME280;69007;48.978;18.066;2023-06-04T12:53:38;97985.22;;;21.02;51.77
46768;BME280;69007;48.978;18.066;2023-06-04T12:56:04;97995.31;;;21.06;50.85
46768;BME280;69007;48.978;18.066;2023-06-04T12:58:29;97992.88;;;20.78;52.83
46768;BME280;69007;48.978;18.066;2023-06-04T13:00:55;97992.06;;;20.69;52.65